Time;durP1;ratioP1;P1;durP2;ratioP2;P2;SDS_P1;SDS_P2;PMS_P1;PMS_P2;Temp;Humidity;BMP_temperature;BMP_pressure;BME280_temperature;BME280_humidity;BME280_pressure;Samples;Min_cycle;Max_cycle;Signal;HPM_P1;HPM_P2
2022/08/18 00:01:08;;;;;;;86.07;47.75;;;20.30;99.90;;;;;;4994560;28;20268;-83
2022/08/18 00:03:34;;;;;;;79.43;45.20;;;20.30;99.90;;;;;;4994421;28;20256;-84
2022/08/18 00:05:59;;;;;;;87.05;45.97;;;20.10;99.90;;;;;;4994721;28;20197;-84
2022/08/18 00:08:27;;;;;;;79.15;45.72;;;20.10;99.90;;;;;;4994342;28;20165;-84
2022/08/18 00:10:54;;;;;;;76.82;44.70;;;20.10;99.90;;;;;;4994503;28;20204;-85
2022/08/18 00:13:19;;;;;;;74.72;44.88;;;20.10;99.90;;;;;;4994812;28;20272;-84
2022/08/18 00:15:45;;;;;;;81.07;44.92;;;20.10;99.90;;;;;;4994241;28;20661;-84
2022/08/18 00:18:10;;;;;;;84.68;43.40;;;20.10;99.90;;;;;;5010312;28;20169;-85
2022/08/18 00:20:36;;;;;;;74.38;43.75;;;20.10;99.90;;;;;;4995416;28;20197;-84
2022/08/18 00:23:02;;;;;;;77.22;43.95;;;20.20;99.90;;;;;;4994422;28;20256;-85
2022/08/18 00:25:27;;;;;;;79.60;43.75;;;20.20;99.90;;;;;;4995708;28;20181;-84
2022/08/18 00:27:53;;;;;;;76.95;43.25;;;20.40;99.90;;;;;;4995455;28;20211;-84
2022/08/18 00:30:20;;;;;;;75.10;43.97;;;20.50;99.90;;;;;;4997118;28;20169;-84
2022/08/18 00:32:52;;;;;;;74.60;43.63;;;20.40;99.90;;;;;;4979465;28;20192;-84
2022/08/18 00:35:25;;;;;;;76.82;41.60;;;20.50;99.90;;;;;;4996004;28;20753;-85
2022/08/18 00:37:52;;;;;;;74.35;43.15;;;20.40;99.90;;;;;;4996571;28;20173;-84
2022/08/18 00:40:21;;;;;;;75.60;42.75;;;20.50;99.90;;;;;;4995751;28;20173;-84
2022/08/18 00:42:51;;;;;;;82.90;45.97;;;20.60;99.90;;;;;;4994457;28;20235;-84
2022/08/18 00:45:21;;;;;;;86.70;47.67;;;20.50;99.90;;;;;;4995302;28;20173;-84
2022/08/18 00:47:47;;;;;;;94.78;49.03;;;20.40;99.90;;;;;;4994311;28;20630;-84
2022/08/18 00:50:25;;;;;;;92.85;49.15;;;20.50;99.90;;;;;;4994086;28;20208;-83
2022/08/18 00:53:08;;;;;;;97.43;46.92;;;20.50;99.90;;;;;;4994187;28;20264;-84
2022/08/18 00:55:34;;;;;;;101.97;50.35;;;20.60;99.90;;;;;;4994216;28;20263;-84
2022/08/18 00:58:08;;;;;;;91.07;46.88;;;20.50;99.90;;;;;;4995068;28;20165;-84
2022/08/18 01:00:35;;;;;;;106.03;51.83;;;20.40;99.90;;;;;;4993906;28;20295;-84
2022/08/18 01:03:05;;;;;;;103.90;51.85;;;20.60;99.90;;;;;;4993783;28;20228;-84
2022/08/18 01:05:39;;;;;;;96.38;49.45;;;20.80;99.90;;;;;;4994183;28;20181;-85
2022/08/18 01:08:09;;;;;;;98.93;49.50;;;20.70;99.90;;;;;;4994027;28;20212;-84
2022/08/18 01:10:35;;;;;;;94.25;47.60;;;20.70;99.90;;;;;;4993327;28;20193;-84
2022/08/18 01:13:01;;;;;;;87.18;46.53;;;20.60;99.90;;;;;;4993472;28;20218;-84
2022/08/18 01:15:28;;;;;;;95.65;47.60;;;20.60;99.90;;;;;;4993556;28;20283;-83
2022/08/18 01:23:47;;;;;;;89.80;45.42;;;20.70;99.90;;;;;;4994624;28;20251;-84
2022/08/18 01:26:15;;;;;;;86.18;43.78;;;20.60;99.90;;;;;;4993308;28;20177;-84
2022/08/18 01:28:43;;;;;;;91.60;46.97;;;20.50;99.90;;;;;;4993337;28;20181;-83
2022/08/18 01:31:12;;;;;;;87.95;45.67;;;20.60;99.90;;;;;;4993107;28;20235;-84
2022/08/18 01:33:42;;;;;;;93.68;44.63;;;20.80;99.90;;;;;;4993300;28;20260;-85
2022/08/18 01:36:15;;;;;;;86.55;44.10;;;21.00;99.90;;;;;;4994225;28;20173;-84
2022/08/18 01:38:43;;;;;;;84.47;45.38;;;21.10;99.90;;;;;;5000403;28;20161;-85
2022/08/18 01:41:09;;;;;;;83.43;46.28;;;21.10;99.90;;;;;;5008494;28;20173;-84
2022/08/18 01:43:35;;;;;;;83.32;42.85;;;21.10;99.90;;;;;;5018065;28;20184;-85
2022/08/18 01:46:03;;;;;;;86.93;44.10;;;20.80;99.90;;;;;;4993296;28;20537;-84
2022/08/18 01:48:32;;;;;;;74.97;41.75;;;20.90;99.90;;;;;;4993027;28;20171;-85
2022/08/18 01:50:59;;;;;;;76.00;41.38;;;20.60;99.90;;;;;;4992766;28;20196;-84
2022/08/18 01:53:26;;;;;;;81.35;43.85;;;20.40;99.90;;;;;;4992874;28;20195;-84
2022/08/18 01:55:52;;;;;;;80.70;43.17;;;20.70;99.90;;;;;;4992726;28;20224;-84
2022/08/18 01:58:18;;;;;;;76.13;41.25;;;20.90;99.90;;;;;;4993050;28;20178;-85
2022/08/18 02:00:43;;;;;;;90.18;44.08;;;21.00;99.90;;;;;;4992949;28;20207;-84
2022/08/18 02:03:12;;;;;;;79.38;44.13;;;20.90;99.90;;;;;;4993026;28;20173;-84
2022/08/18 02:05:45;;;;;;;87.72;44.75;;;21.10;99.90;;;;;;4992921;28;20656;-84
2022/08/18 02:08:11;;;;;;;86.95;46.05;;;21.30;99.90;;;;;;4992812;28;20626;-85
2022/08/18 02:10:38;;;;;;;92.45;46.42;;;21.30;99.90;;;;;;4992724;28;20243;-84
2022/08/18 02:13:04;;;;;;;83.47;42.88;;;21.10;99.90;;;;;;4992779;28;20619;-85
2022/08/18 02:15:30;;;;;;;82.25;43.10;;;21.00;99.90;;;;;;4992020;28;20280;-84
2022/08/18 02:17:56;;;;;;;86.78;45.00;;;21.00;99.90;;;;;;4992576;28;20180;-85
2022/08/18 02:20:21;;;;;;;82.53;44.92;;;20.90;99.90;;;;;;4993594;28;20275;-84
2022/08/18 02:22:48;;;;;;;84.43;45.08;;;20.80;99.90;;;;;;4992365;28;20165;-84
2022/08/18 02:25:14;;;;;;;83.15;44.08;;;20.80;99.90;;;;;;4992849;28;20212;-84
2022/08/18 02:27:40;;;;;;;84.32;43.58;;;20.90;99.90;;;;;;4994194;28;20177;-84
2022/08/18 02:30:10;;;;;;;78.45;43.17;;;20.80;99.90;;;;;;4992565;28;20180;-85
2022/08/18 02:32:36;;;;;;;80.60;43.30;;;20.70;99.90;;;;;;4992699;28;20272;-85
2022/08/18 02:35:02;;;;;;;84.88;44.00;;;20.60;99.90;;;;;;4992209;28;20237;-84
2022/08/18 02:37:29;;;;;;;71.07;42.35;;;20.50;99.90;;;;;;4992344;28;20165;-84
2022/08/18 02:39:56;;;;;;;79.35;43.50;;;20.50;99.90;;;;;;4992388;28;20169;-85
2022/08/18 02:42:21;;;;;;;76.72;42.47;;;20.30;99.90;;;;;;4992451;28;21362;-84
2022/08/18 02:44:47;;;;;;;84.63;43.30;;;20.30;99.90;;;;;;4993645;28;20173;-84
2022/08/18 02:47:13;;;;;;;78.35;41.67;;;20.30;99.90;;;;;;4992268;28;20168;-84
2022/08/18 02:49:39;;;;;;;81.82;41.55;;;20.20;99.90;;;;;;4992114;28;20173;-85
2022/08/18 02:52:05;;;;;;;93.55;44.20;;;20.30;99.90;;;;;;4992221;28;20193;-84
2022/08/18 02:54:30;;;;;;;82.60;43.50;;;20.20;99.90;;;;;;4992169;28;20212;-85
2022/08/18 02:56:56;;;;;;;75.03;41.83;;;20.30;99.90;;;;;;4992288;28;20165;-85
2022/08/18 02:59:25;;;;;;;73.00;40.03;;;20.20;99.90;;;;;;4992296;28;20183;-83
2022/08/18 03:01:53;;;;;;;74.72;40.00;;;20.20;99.90;;;;;;4993547;28;20197;-85
2022/08/18 03:04:26;;;;;;;89.93;44.95;;;19.90;99.90;;;;;;4992654;28;20219;-84
2022/08/18 03:06:53;;;;;;;93.03;46.50;;;20.00;99.90;;;;;;5023451;23;20299;-85
2022/08/18 03:09:19;;;;;;;100.35;47.72;;;20.00;99.90;;;;;;5032545;28;20190;-94
2022/08/18 03:11:45;;;;;;;100.13;48.95;;;19.90;99.90;;;;;;5020082;28;20271;-93
2022/08/18 03:14:12;;;;;;;95.20;47.25;;;20.00;99.90;;;;;;5012449;28;20238;-90
2022/08/18 03:16:40;;;;;;;86.43;44.42;;;20.10;99.90;;;;;;5012791;28;20169;-92
2022/08/18 03:19:06;;;;;;;76.43;41.38;;;20.00;99.90;;;;;;5014087;28;20180;-84
2022/08/18 03:21:36;;;;;;;80.00;42.13;;;20.00;99.90;;;;;;5012475;28;20189;-93
2022/08/18 03:24:03;;;;;;;91.35;43.85;;;20.10;99.90;;;;;;5012549;28;20219;-95
2022/08/18 03:26:30;;;;;;;84.68;44.35;;;20.20;99.90;;;;;;5013609;28;20180;-85
2022/08/18 03:28:56;;;;;;;80.82;41.63;;;20.10;99.90;;;;;;5017103;28;20177;-86
2022/08/18 03:31:24;;;;;;;85.50;44.75;;;19.90;99.90;;;;;;5016691;28;20193;-92
2022/08/18 03:33:51;;;;;;;79.35;41.13;;;19.50;99.90;;;;;;5016526;28;20168;-94
2022/08/18 03:36:23;;;;;;;84.53;40.65;;;19.40;99.90;;;;;;5016049;28;20212;-94
2022/08/18 03:38:50;;;;;;;78.13;41.50;;;19.40;99.90;;;;;;5015653;28;20183;-90
2022/08/18 03:41:18;;;;;;;82.32;42.55;;;19.60;99.90;;;;;;5016623;28;20188;-93
2022/08/18 03:43:44;;;;;;;80.57;42.22;;;19.80;99.90;;;;;;5015562;28;20164;-85
2022/08/18 03:46:12;;;;;;;80.57;39.97;;;19.90;99.90;;;;;;5016470;28;20223;-94
2022/08/18 03:48:40;;;;;;;74.45;38.75;;;20.00;99.90;;;;;;5015977;28;20239;-85
2022/08/18 03:51:18;;;;;;;79.53;40.72;;;20.00;99.90;;;;;;5015962;28;20184;-84
2022/08/18 03:53:44;;;;;;;77.22;41.17;;;20.30;99.90;;;;;;5015459;28;20200;-85
2022/08/18 03:56:15;;;;;;;79.25;39.03;;;20.20;99.90;;;;;;5016372;28;20175;-93
2022/08/18 03:58:51;;;;;;;73.15;37.53;;;20.40;99.90;;;;;;5018717;28;20259;-83
2022/08/18 04:01:20;;;;;;;76.53;39.20;;;20.60;99.90;;;;;;5027182;28;20172;-85
2022/08/18 04:03:49;;;;;;;64.30;37.97;;;20.50;99.90;;;;;;5026464;28;20538;-84
2022/08/18 04:06:28;;;;;;;67.90;37.10;;;20.70;99.90;;;;;;5019014;28;20184;-87
2022/08/18 04:08:56;;;;;;;65.20;36.13;;;20.60;99.90;;;;;;5015555;28;20171;-88
2022/08/18 04:11:23;;;;;;;65.82;35.05;;;20.50;99.90;;;;;;5015051;28;20267;-87
2022/08/18 04:13:49;;;;;;;66.35;37.50;;;20.60;99.90;;;;;;5015629;28;20169;-89
2022/08/18 04:16:15;;;;;;;65.85;36.75;;;20.40;99.90;;;;;;5014850;28;20247;-86
2022/08/18 04:18:41;;;;;;;63.40;36.17;;;20.20;99.90;;;;;;5016405;28;20161;-88
2022/08/18 04:21:09;;;;;;;64.05;36.13;;;20.30;99.90;;;;;;5013787;28;20199;-83
2022/08/18 04:23:38;;;;;;;63.90;37.05;;;20.40;99.90;;;;;;5014842;28;20752;-83
2022/08/18 04:26:06;;;;;;;66.43;36.05;;;20.60;99.90;;;;;;5013518;28;20208;-82
2022/08/18 04:28:32;;;;;;;64.10;36.28;;;20.60;99.90;;;;;;5014703;28;20215;-83
2022/08/18 04:31:04;;;;;;;62.75;35.10;;;20.80;99.90;;;;;;5013486;28;20200;-83
2022/08/18 04:33:29;;;;;;;62.55;35.35;;;20.70;99.90;;;;;;5013887;28;20173;-83
2022/08/18 04:35:55;;;;;;;59.95;32.40;;;20.60;99.90;;;;;;5015188;28;20211;-90
2022/08/18 04:38:21;;;;;;;64.57;34.90;;;20.50;99.90;;;;;;5013518;28;20168;-85
2022/08/18 04:40:47;;;;;;;61.63;35.20;;;20.40;99.90;;;;;;5015532;28;20185;-84
2022/08/18 04:43:14;;;;;;;64.68;35.13;;;20.30;99.90;;;;;;5014687;28;20184;-88
2022/08/18 04:45:46;;;;;;;54.20;33.33;;;20.30;99.90;;;;;;5015988;28;20161;-85
2022/08/18 04:48:14;;;;;;;59.85;33.30;;;20.40;99.90;;;;;;5014690;28;20184;-93
2022/08/18 04:50:41;;;;;;;59.03;34.35;;;20.20;99.90;;;;;;5015190;28;20180;-85
2022/08/18 04:55:53;;;;;;;49.33;32.00;;;19.90;99.90;;;;;;5019493;28;20251;-85
2022/08/18 04:58:21;;;;;;;56.78;34.67;;;19.80;99.90;;;;;;5018849;28;20637;-85
2022/08/18 05:00:59;;;;;;;60.78;33.65;;;19.80;99.90;;;;;;5031559;28;20180;-84
2022/08/18 05:03:25;;;;;;;61.17;33.22;;;19.80;99.90;;;;;;5039296;28;20149;-84
2022/08/18 05:05:59;;;;;;;50.13;33.13;;;19.80;99.90;;;;;;5038498;28;20165;-84
2022/08/18 05:08:25;;;;;;;53.78;32.20;;;19.80;99.90;;;;;;5038460;28;20168;-83
2022/08/18 05:10:58;;;;;;;52.13;32.60;;;19.90;99.90;;;;;;5037890;28;20191;-84
2022/08/18 05:13:24;;;;;;;53.17;32.72;;;20.10;99.90;;;;;;5038324;28;20161;-85
2022/08/18 05:15:56;;;;;;;48.28;31.17;;;20.00;99.90;;;;;;5026243;28;20680;-84
2022/08/18 05:18:23;;;;;;;46.00;30.00;;;20.10;99.90;;;;;;5015143;28;20169;-84
2022/08/18 05:20:51;;;;;;;54.10;32.90;;;20.20;99.90;;;;;;5026855;28;20179;-92
2022/08/18 05:23:17;;;;;;;46.58;30.38;;;20.10;99.90;;;;;;5025834;28;20173;-84
2022/08/18 05:25:43;;;;;;;56.45;33.40;;;20.20;99.90;;;;;;5022432;28;20254;-85
2022/08/18 05:28:09;;;;;;;48.28;32.22;;;20.20;99.90;;;;;;5022420;28;20215;-87
2022/08/18 05:30:35;;;;;;;53.63;32.30;;;20.30;99.90;;;;;;5016120;28;20564;-86
2022/08/18 05:33:02;;;;;;;54.13;32.53;;;20.40;99.90;;;;;;5012311;28;20175;-85
2022/08/18 05:35:45;;;;;;;56.60;33.05;;;20.40;99.90;;;;;;5012345;28;20207;-85
2022/08/18 05:38:34;;;;;;;53.53;33.53;;;20.30;99.90;;;;;;5012636;28;20172;-86
2022/08/18 05:41:07;;;;;;;49.08;31.75;;;20.50;99.90;;;;;;5002437;28;20196;-87
2022/08/18 05:43:34;;;;;;;49.13;31.30;;;20.40;99.90;;;;;;5012659;28;20172;-86
2022/08/18 05:46:02;;;;;;;51.83;31.65;;;20.50;99.90;;;;;;5012321;28;20222;-85
2022/08/18 05:48:27;;;;;;;54.67;32.38;;;20.50;99.90;;;;;;5013209;28;20164;-84
2022/08/18 05:50:56;;;;;;;57.33;32.78;;;20.60;99.90;;;;;;5011711;28;20195;-84
2022/08/18 05:56:45;;;;;;;54.22;34.13;;;20.50;99.90;;;;;;5011890;28;20177;-85
2022/08/18 05:58:56;;;;;;;55.15;33.88;;;20.60;99.90;;;;;;5015113;28;20219;-88
2022/08/18 06:01:33;;;;;;;64.05;34.58;;;20.60;99.90;;;;;;5013838;28;20548;-89
2022/08/18 06:04:17;;;;;;;60.42;34.00;;;20.70;99.90;;;;;;5013551;28;20190;-90
2022/08/18 06:06:44;;;;;;;58.63;34.72;;;21.00;99.90;;;;;;5013341;28;20552;-88
2022/08/18 06:09:21;;;;;;;58.15;35.33;;;21.10;99.90;;;;;;5013054;28;20174;-89
2022/08/18 06:12:04;;;;;;;58.75;36.10;;;21.20;99.90;;;;;;5013568;28;20188;-89
2022/08/18 06:14:30;;;;;;;58.30;34.25;;;21.30;99.90;;;;;;5014875;28;20215;-93
2022/08/18 06:17:43;;;;;;;56.03;34.17;;;21.60;99.90;;;;;;5014387;28;20172;-93
2022/08/18 06:20:27;;;;;;;55.63;32.33;;;21.80;99.90;;;;;;5012537;28;20215;-93
2022/08/18 06:23:23;;;;;;;44.75;30.58;;;21.90;99.90;;;;;;4998866;28;20184;-92
2022/08/18 06:26:06;;;;;;;46.80;30.73;;;21.90;99.90;;;;;;5016270;28;20196;-92
2022/08/18 06:29:03;;;;;;;45.13;28.65;;;21.90;99.90;;;;;;5016538;28;20176;-91
2022/08/18 06:31:44;;;;;;;47.72;29.95;;;22.00;99.90;;;;;;5013387;28;20342;-89
2022/08/18 06:34:54;;;;;;;45.75;29.77;;;22.00;99.90;;;;;;5012827;28;20278;-87
2022/08/18 06:37:34;;;;;;;52.17;31.60;;;22.00;99.90;;;;;;5013286;28;20208;-87
2022/08/18 06:40:20;;;;;;;47.17;30.85;;;22.20;99.90;;;;;;5014634;28;20177;-88
2022/08/18 06:42:47;;;;;;;49.58;30.23;;;22.30;99.90;;;;;;5015258;28;20185;-88
2022/08/18 06:45:17;;;;;;;49.30;29.80;;;22.60;99.90;;;;;;5023310;28;20195;-88
2022/08/18 06:47:58;;;;;;;41.38;28.58;;;22.80;99.90;;;;;;5022428;28;20172;-90
2022/08/18 06:50:39;;;;;;;47.17;29.17;;;23.00;99.90;;;;;;5025365;28;20326;-90
2022/08/18 06:53:08;;;;;;;41.35;27.23;;;23.30;99.90;;;;;;5014041;28;20255;-89
2022/08/18 06:55:38;;;;;;;34.00;25.35;;;23.30;99.90;;;;;;5013401;28;20278;-88
2022/08/18 06:58:18;;;;;;;41.13;23.30;;;23.30;99.90;;;;;;5013678;28;20215;-89
2022/08/18 07:00:55;;;;;;;33.60;21.20;;;23.00;99.90;;;;;;5013217;28;20192;-87
2022/08/18 07:03:38;;;;;;;31.45;20.98;;;23.20;99.90;;;;;;5018105;28;20172;-88
2022/08/18 07:06:22;;;;;;;26.60;18.25;;;23.10;99.90;;;;;;5017473;28;20191;-88
2022/08/18 07:09:15;;;;;;;28.48;19.83;;;23.20;99.90;;;;;;5019253;28;20176;-88
2022/08/18 07:11:56;;;;;;;27.17;18.55;;;23.40;99.90;;;;;;5020001;28;20196;-89
2022/08/18 07:14:24;;;;;;;29.60;19.20;;;23.20;99.90;;;;;;5019871;28;20200;-88
2022/08/18 07:17:05;;;;;;;24.67;17.17;;;23.30;99.90;;;;;;5021716;28;20164;-89
2022/08/18 07:19:31;;;;;;;27.90;17.48;;;22.90;99.90;;;;;;5020210;28;20211;-88
2022/08/18 07:22:17;;;;;;;25.13;16.98;;;22.70;99.90;;;;;;5021887;28;20243;-88
2022/08/18 07:24:55;;;;;;;27.33;18.25;;;22.60;99.90;;;;;;5021494;28;20188;-88
2022/08/18 07:27:48;;;;;;;32.25;17.45;;;22.50;99.90;;;;;;5025232;28;20168;-89
2022/08/18 07:30:27;;;;;;;31.95;16.38;;;22.50;99.90;;;;;;5023062;28;20502;-89
2022/08/18 07:33:20;;;;;;;26.35;15.68;;;22.80;99.90;;;;;;5024169;28;20198;-88
2022/08/18 07:35:56;;;;;;;19.95;13.52;;;23.30;99.90;;;;;;5022347;28;20208;-90
2022/08/18 07:38:32;;;;;;;17.00;13.90;;;23.60;99.90;;;;;;5018393;28;20246;-88
2022/08/18 07:41:22;;;;;;;17.38;12.20;;;23.60;99.90;;;;;;5016694;28;20242;-89
2022/08/18 07:44:07;;;;;;;15.15;12.35;;;23.80;99.90;;;;;;5015307;28;20169;-86
2022/08/18 07:47:11;;;;;;;13.80;12.40;;;23.90;99.90;;;;;;5016135;28;20204;-84
2022/08/18 07:49:40;;;;;;;24.15;16.08;;;24.30;99.90;;;;;;4993833;28;20185;-85
2022/08/18 07:52:28;;;;;;;19.35;13.77;;;23.90;99.90;;;;;;5029827;28;20249;-85
2022/08/18 07:55:32;;;;;;;17.77;13.23;;;23.80;99.90;;;;;;5028850;28;20254;-84
2022/08/18 07:58:16;;;;;;;19.98;13.50;;;24.00;99.90;;;;;;4999111;28;20165;-85
2022/08/18 08:01:09;;;;;;;18.10;14.25;;;24.40;99.90;;;;;;4995374;28;20205;-84
2022/08/18 08:03:37;;;;;;;14.98;13.38;;;24.50;99.90;;;;;;5006222;28;20189;-84
2022/08/18 08:06:22;;;;;;;16.15;14.20;;;24.50;99.90;;;;;;4996334;28;20166;-85
2022/08/18 08:09:18;;;;;;;21.65;13.63;;;24.80;99.90;;;;;;4994189;28;20703;-85
2022/08/18 08:12:11;;;;;;;16.13;12.98;;;24.70;99.90;;;;;;5002265;28;20812;-84
2022/08/18 08:14:50;;;;;;;20.48;12.25;;;24.80;99.90;;;;;;5011587;28;20200;-84
2022/08/18 08:17:34;;;;;;;19.27;10.50;;;25.20;99.90;;;;;;5013778;28;20564;-84
2022/08/18 08:20:03;;;;;;;9.02;8.20;;;25.00;99.90;;;;;;5013836;28;20183;-84
2022/08/18 08:22:50;;;;;;;12.02;9.95;;;25.30;99.90;;;;;;5013337;28;20222;-84
2022/08/18 08:25:24;;;;;;;11.45;10.30;;;25.40;99.90;;;;;;5013567;28;20172;-84
2022/08/18 08:28:30;;;;;;;10.88;9.98;;;25.60;99.90;;;;;;5013388;28;20176;-84
2022/08/18 08:31:08;;;;;;;11.38;9.82;;;25.30;99.90;;;;;;5013533;28;20192;-84
2022/08/18 08:33:59;;;;;;;12.55;10.93;;;25.50;99.90;;;;;;5014761;28;20185;-84
2022/08/18 08:36:34;;;;;;;17.55;11.23;;;25.40;99.90;;;;;;5013156;28;20176;-84
2022/08/18 08:39:23;;;;;;;18.33;11.65;;;25.60;99.90;;;;;;5013295;28;20263;-84
2022/08/18 08:41:53;;;;;;;11.02;7.82;;;25.50;99.90;;;;;;5015053;28;20246;-84
2022/08/18 08:44:23;;;;;;;9.40;7.15;;;25.70;99.90;;;;;;5013682;28;20171;-82
2022/08/18 08:47:01;;;;;;;10.77;7.72;;;25.70;99.90;;;;;;5014642;28;20168;-82
2022/08/18 08:49:38;;;;;;;8.45;7.60;;;25.80;99.90;;;;;;5012834;28;20175;-82
2022/08/18 08:52:17;;;;;;;11.63;8.48;;;25.90;99.90;;;;;;5014080;28;20253;-82
2022/08/18 08:54:59;;;;;;;9.77;7.63;;;26.20;99.90;;;;;;5012769;28;20222;-82
2022/08/18 08:57:32;;;;;;;9.82;8.63;;;26.40;99.90;;;;;;5013980;28;20164;-82
2022/08/18 09:00:02;;;;;;;9.15;8.07;;;26.70;99.90;;;;;;5014103;28;20169;-82
2022/08/18 09:02:49;;;;;;;11.30;8.90;;;26.60;99.90;;;;;;5012468;28;20168;-82
2022/08/18 09:05:24;;;;;;;9.70;7.85;;;26.50;99.90;;;;;;5012513;28;20270;-82
2022/08/18 09:08:27;;;;;;;33.60;10.65;;;26.70;99.90;;;;;;5014287;28;20198;-82
2022/08/18 09:11:17;;;;;;;14.80;6.78;;;27.00;99.90;;;;;;5013789;28;20296;-82
2022/08/18 09:13:46;;;;;;;11.93;7.82;;;27.00;99.90;;;;;;5013604;28;20687;-89
2022/08/18 09:16:38;;;;;;;9.02;8.18;;;26.50;99.90;;;;;;5017050;28;20270;-85
2022/08/18 09:19:25;;;;;;;14.10;8.02;;;26.10;99.90;;;;;;5016112;28;20175;-88
2022/08/18 09:22:08;;;;;;;8.60;7.78;;;25.90;99.90;;;;;;5016811;28;20195;-89
2022/08/18 09:24:43;;;;;;;14.82;7.78;;;25.70;99.90;;;;;;5014365;28;20207;-81
2022/08/18 09:27:21;;;;;;;13.52;8.32;;;25.40;99.90;;;;;;5015393;28;20171;-90
2022/08/18 09:29:56;;;;;;;10.60;7.82;;;25.20;99.90;;;;;;5014663;28;20168;-82
2022/08/18 09:32:21;;;;;;;14.07;7.13;;;25.30;99.90;;;;;;5012906;28;20613;-84
2022/08/18 09:35:02;;;;;;;18.42;7.13;;;25.40;99.90;;;;;;5012607;28;20692;-82
2022/08/18 09:37:41;;;;;;;8.63;7.40;;;25.50;99.90;;;;;;5012331;28;20199;-85
2022/08/18 09:43:16;;;;;;;8.25;6.82;;;25.70;99.90;;;;;;5014082;28;20586;-88
2022/08/18 09:45:59;;;;;;;8.93;6.43;;;25.60;99.90;;;;;;5012495;28;20180;-85
2022/08/18 09:49:12;;;;;;;6.93;6.32;;;25.60;99.90;;;;;;5013738;28;20178;-84
2022/08/18 09:51:39;;;;;;;8.32;6.68;;;24.90;99.90;;;;;;5013571;28;20196;-85
2022/08/18 09:54:11;;;;;;;6.60;6.10;;;24.30;99.90;;;;;;5012976;28;20203;-86
2022/08/18 09:56:48;;;;;;;11.27;5.07;;;24.60;99.90;;;;;;5012638;28;20168;-85
2022/08/18 09:59:36;;;;;;;7.78;5.88;;;24.90;99.90;;;;;;5012148;28;20637;-85
2022/08/18 10:02:09;;;;;;;8.40;5.20;;;24.90;99.90;;;;;;5011594;28;20291;-86
2022/08/18 10:04:47;;;;;;;9.00;5.75;;;25.20;99.90;;;;;;5009835;28;20176;-91
2022/08/18 10:07:38;;;;;;;6.10;5.60;;;25.40;99.90;;;;;;5016251;28;20184;-89
2022/08/18 10:10:10;;;;;;;6.18;5.68;;;25.60;99.90;;;;;;5014090;28;20231;-90
2022/08/18 10:13:00;;;;;;;5.55;4.97;;;25.50;99.90;;;;;;5018914;28;20625;-91
2022/08/18 10:15:33;;;;;;;8.93;6.85;;;25.70;99.90;;;;;;5019263;28;20234;-89
2022/08/18 10:18:22;;;;;;;7.15;6.65;;;26.00;99.90;;;;;;5018207;28;20626;-90
2022/08/18 10:20:55;;;;;;;10.73;7.13;;;25.90;99.90;;;;;;5017508;28;20196;-91
2022/08/18 10:23:48;;;;;;;8.32;7.63;;;26.10;99.90;;;;;;5014553;28;20173;-92
2022/08/18 10:26:29;;;;;;;8.75;6.43;;;26.30;99.90;;;;;;5002791;28;20187;-90
2022/08/18 10:28:56;;;;;;;7.30;6.68;;;26.20;99.90;;;;;;4999486;28;20188;-91
2022/08/18 10:31:23;;;;;;;8.52;7.80;;;26.50;99.90;;;;;;4996529;28;20185;-92
2022/08/18 10:33:54;;;;;;;8.40;7.63;;;26.80;99.90;;;;;;4992909;28;20165;-90
2022/08/18 10:36:51;;;;;;;7.90;7.30;;;26.80;99.90;;;;;;4994831;28;20231;-93
2022/08/18 10:39:38;;;;;;;12.40;6.68;;;26.60;99.90;;;;;;4991081;28;20193;-89
2022/08/18 10:42:13;;;;;;;8.85;6.45;;;26.20;99.90;;;;;;4998783;28;20257;-93
2022/08/18 10:45:14;;;;;;;6.95;6.45;;;25.90;99.90;;;;;;5012121;28;20156;-92
2022/08/18 10:47:41;;;;;;;6.40;6.00;;;26.10;99.90;;;;;;5002720;28;20164;-94
2022/08/18 10:50:28;;;;;;;7.28;6.13;;;26.30;99.90;;;;;;4994742;28;20177;-90
2022/08/18 10:53:01;;;;;;;7.80;6.78;;;26.40;99.90;;;;;;4996284;28;20180;-90
2022/08/18 10:55:55;;;;;;;8.65;6.93;;;26.50;99.90;;;;;;4997744;28;20211;-92
2022/08/18 10:58:49;;;;;;;11.00;6.78;;;26.30;99.90;;;;;;4998098;28;20188;-90
2022/08/18 11:01:51;;;;;;;10.30;7.00;;;26.60;99.90;;;;;;5003128;28;20664;-93
2022/08/18 11:04:28;;;;;;;11.27;6.60;;;26.60;99.90;;;;;;5018226;28;20183;-92
2022/08/18 11:08:41;;;;;;;7.90;6.65;;;26.50;99.90;;;;;;5091948;28;20559;-92
2022/08/18 11:11:10;;;;;;;10.85;6.88;;;26.30;99.90;;;;;;5090595;28;20189;-89
2022/08/18 11:14:12;;;;;;;8.60;6.88;;;26.10;99.90;;;;;;5091888;28;20178;-92
2022/08/18 11:16:56;;;;;;;8.70;6.45;;;26.20;99.90;;;;;;5092245;28;20185;-92
2022/08/18 11:19:23;;;;;;;9.98;6.60;;;26.50;99.90;;;;;;5093164;28;20646;-89
2022/08/18 11:21:51;;;;;;;7.47;6.95;;;26.10;99.90;;;;;;5093163;28;20186;-90
2022/08/18 11:24:25;;;;;;;9.73;8.90;;;26.20;99.90;;;;;;5109013;28;20154;-87
2022/08/18 11:27:03;;;;;;;9.13;8.32;;;26.30;99.90;;;;;;5106800;28;20209;-87
2022/08/18 11:29:33;;;;;;;10.23;8.07;;;25.80;99.90;;;;;;5101549;28;20162;-91
2022/08/18 11:32:08;;;;;;;8.93;8.07;;;25.80;99.90;;;;;;5092138;28;20197;-90
2022/08/18 11:34:45;;;;;;;9.27;8.50;;;26.10;99.90;;;;;;5093733;28;20180;-87
2022/08/18 11:37:45;;;;;;;14.68;8.77;;;26.30;99.90;;;;;;5090845;28;20661;-89
2022/08/18 11:40:20;;;;;;;8.13;7.18;;;26.60;99.90;;;;;;5092870;28;20257;-89
2022/08/18 11:43:10;;;;;;;8.13;7.43;;;26.80;99.90;;;;;;5094491;28;20213;-89
2022/08/18 11:45:51;;;;;;;7.35;6.65;;;27.00;99.90;;;;;;5091444;28;20264;-88
2022/08/18 11:48:44;;;;;;;7.90;7.40;;;27.10;99.90;;;;;;5091905;28;20233;-95
2022/08/18 11:51:19;;;;;;;7.97;7.38;;;27.10;99.90;;;;;;5091501;28;20211;-91
2022/08/18 11:53:47;;;;;;;7.63;7.03;;;27.20;99.90;;;;;;5090843;28;20957;-86
2022/08/18 11:56:13;;;;;;;8.75;7.90;;;27.00;99.90;;;;;;5089813;28;20194;-92
2022/08/18 11:58:38;;;;;;;7.13;6.63;;;27.30;99.90;;;;;;5092060;28;20518;-90
2022/08/18 12:01:07;;;;;;;9.05;8.35;;;27.80;99.90;;;;;;5090628;28;20194;-91
2022/08/18 12:03:44;;;;;;;7.25;6.75;;;28.10;99.90;;;;;;5074149;28;20170;-91
2022/08/18 12:06:31;;;;;;;8.13;7.63;;;28.40;99.90;;;;;;5075714;28;20245;-89
2022/08/18 12:09:02;;;;;;;10.15;9.27;;;28.40;99.90;;;;;;5070056;28;20260;-89
2022/08/18 12:11:47;;;;;;;106.28;17.08;;;28.20;99.90;;;;;;5070090;28;20186;-92
2022/08/18 12:14:20;;;;;;;7.50;6.90;;;27.40;99.90;;;;;;5079421;28;20210;-94
2022/08/18 12:16:46;;;;;;;8.57;7.72;;;27.10;99.90;;;;;;5088829;28;20256;-90
2022/08/18 12:19:14;;;;;;;8.05;7.40;;;27.30;99.90;;;;;;5076755;28;20179;-87
2022/08/18 12:21:52;;;;;;;7.95;7.35;;;27.40;99.90;;;;;;5076796;28;20197;-87
2022/08/18 12:24:30;;;;;;;10.07;8.98;;;27.50;99.90;;;;;;5073965;28;20197;-89
2022/08/18 12:26:57;;;;;;;9.02;8.32;;;27.50;99.90;;;;;;5075002;28;20198;-88
2022/08/18 12:29:24;;;;;;;10.00;9.20;;;27.90;99.90;;;;;;5076432;28;20372;-89
2022/08/18 12:31:52;;;;;;;10.35;9.43;;;28.10;99.90;;;;;;5075506;28;20190;-86
2022/08/18 12:34:22;;;;;;;9.80;9.00;;;28.30;99.90;;;;;;5073907;28;20182;-86
2022/08/18 12:36:50;;;;;;;10.02;9.20;;;28.70;99.90;;;;;;5073308;28;20166;-85
2022/08/18 12:39:16;;;;;;;13.43;11.50;;;28.90;99.90;;;;;;5073895;28;20206;-83
2022/08/18 12:41:42;;;;;;;12.82;11.80;;;28.40;99.90;;;;;;5072655;28;20182;-84
2022/08/18 12:44:07;;;;;;;45.08;12.57;;;28.40;99.90;;;;;;5063136;28;20317;-84
2022/08/18 12:46:33;;;;;;;13.60;10.70;;;28.20;99.90;;;;;;5053505;28;20209;-83
2022/08/18 12:49:01;;;;;;;12.75;11.38;;;28.00;99.90;;;;;;5058329;28;20265;-89
2022/08/18 12:51:27;;;;;;;13.73;11.32;;;27.70;99.90;;;;;;5074130;28;20183;-84
2022/08/18 12:53:52;;;;;;;12.95;11.73;;;27.40;99.90;;;;;;5074564;28;20684;-88
2022/08/18 12:56:38;;;;;;;12.70;11.10;;;27.40;99.90;;;;;;5074130;28;20167;-84
2022/08/18 12:59:06;;;;;;;12.68;11.15;;;27.20;99.90;;;;;;5073287;28;20174;-84
2022/08/18 13:01:36;;;;;;;11.02;9.88;;;27.20;99.90;;;;;;5071057;28;20191;-83
2022/08/18 13:04:03;;;;;;;10.40;9.25;;;27.40;99.90;;;;;;5072193;28;20537;-84
2022/08/18 13:06:30;;;;;;;11.95;6.57;;;27.30;99.90;;;;;;5073008;28;20207;-83
2022/08/18 13:08:55;;;;;;;8.32;7.53;;;27.60;99.90;;;;;;5073582;28;20277;-83
2022/08/18 13:11:22;;;;;;;9.45;8.65;;;27.80;99.90;;;;;;5072318;28;20328;-82
2022/08/18 13:13:49;;;;;;;9.68;8.77;;;28.00;99.90;;;;;;5072087;28;20703;-83
2022/08/18 13:16:17;;;;;;;9.93;9.05;;;28.10;99.90;;;;;;5070817;28;20273;-83
2022/08/18 13:18:43;;;;;;;16.38;10.15;;;27.80;99.90;;;;;;5072268;28;20177;-84
2022/08/18 13:21:11;;;;;;;8.68;7.97;;;27.70;99.90;;;;;;5071961;28;20187;-82
2022/08/18 13:23:37;;;;;;;8.40;7.70;;;27.60;99.90;;;;;;5072998;28;20250;-84